Belfield, North Dakota
Current Conditions -  °F | °C
As of 12:56 AM on Saturday 20 Dec 2014 (Local Time) from KDIK Reporting Station
Clear Clear  
Wind Chill: 15°   Ceiling: Unl
Heat Index: 23°   Visibility: 10mi
Dew Point: 17°   Wind: 7mph
Humidity: 78%   Direction: 180°S
Pressure: 29.85"   Gusts: NA
Location:  46.89°N, 103.2°W
Report Text: KDIK 200756Z AUTO 18006KT 10SM CLR M05/M08 A2985 RMK AO2 SLP132 T10501083
Loading
Personal Weather Stations






























Interactive Weather Map New forecast layout! Learn more

10-Day Weather Forecast

Advertisements
Track Severe Weather on mobile